sensor_id;sensor_type;location;lat;lon;timestamp;pressure;altitude;pressure_sealevel;temperature;humidity
75219;BME280;63801;49.414;19.474;2024-02-26T00:00:44;92901.09;;;5.46;73.19
75219;BME280;63801;49.414;19.474;2024-02-26T00:02:46;92896.84;;;5.45;73.17
75219;BME280;63801;49.414;19.474;2024-02-26T00:04:47;92892.50;;;5.40;73.28
75219;BME280;63801;49.414;19.474;2024-02-26T00:06:47;92892.41;;;5.37;73.62
75219;BME280;63801;49.414;19.474;2024-02-26T00:08:50;92895.44;;;5.35;73.85
75219;BME280;63801;49.414;19.474;2024-02-26T00:10:51;92890.84;;;5.36;73.65
75219;BME280;63801;49.414;19.474;2024-02-26T00:12:51;92888.63;;;5.38;73.96
75219;BME280;63801;49.414;19.474;2024-02-26T00:14:51;92895.53;;;5.39;73.90
75219;BME280;63801;49.414;19.474;2024-02-26T00:16:52;92889.84;;;5.40;73.93
75219;BME280;63801;49.414;19.474;2024-02-26T00:18:53;92892.19;;;5.42;73.57
75219;BME280;63801;49.414;19.474;2024-02-26T00:20:53;92888.50;;;5.47;73.49
75219;BME280;63801;49.414;19.474;2024-02-26T00:22:54;92892.38;;;5.49;73.46
75219;BME280;63801;49.414;19.474;2024-02-26T00:24:54;92895.97;;;5.53;73.03
75219;BME280;63801;49.414;19.474;2024-02-26T00:26:54;92888.69;;;5.54;73.59
75219;BME280;63801;49.414;19.474;2024-02-26T00:28:54;92889.25;;;5.59;73.55
75219;BME280;63801;49.414;19.474;2024-02-26T00:30:55;92887.81;;;5.62;73.57
75219;BME280;63801;49.414;19.474;2024-02-26T00:32:56;92883.34;;;5.66;73.31
75219;BME280;63801;49.414;19.474;2024-02-26T00:34:56;92886.03;;;5.66;73.14
75219;BME280;63801;49.414;19.474;2024-02-26T00:36:56;92891.38;;;5.66;73.18
75219;BME280;63801;49.414;19.474;2024-02-26T00:38:57;92879.53;;;5.67;73.00
75219;BME280;63801;49.414;19.474;2024-02-26T00:40:57;92891.69;;;5.64;72.80
75219;BME280;63801;49.414;19.474;2024-02-26T00:42:57;92888.03;;;5.57;72.70
75219;BME280;63801;49.414;19.474;2024-02-26T00:44:58;92882.69;;;5.44;72.66
75219;BME280;63801;49.414;19.474;2024-02-26T00:46:58;92890.97;;;5.39;72.84
75219;BME280;63801;49.414;19.474;2024-02-26T00:48:59;92886.19;;;5.33;72.77
75219;BME280;63801;49.414;19.474;2024-02-26T00:51:00;92887.50;;;5.27;72.83
75219;BME280;63801;49.414;19.474;2024-02-26T00:53:01;92884.31;;;5.21;73.00
75219;BME280;63801;49.414;19.474;2024-02-26T00:55:02;92896.78;;;5.17;73.17
75219;BME280;63801;49.414;19.474;2024-02-26T00:57:02;92888.78;;;5.17;73.36
75219;BME280;63801;49.414;19.474;2024-02-26T00:59:03;92888.00;;;5.17;73.64
75219;BME280;63801;49.414;19.474;2024-02-26T01:01:03;92890.22;;;5.15;73.42
75219;BME280;63801;49.414;19.474;2024-02-26T01:03:04;92880.63;;;5.14;73.67
75219;BME280;63801;49.414;19.474;2024-02-26T01:05:05;92889.09;;;5.16;73.99
75219;BME280;63801;49.414;19.474;2024-02-26T01:07:06;92891.09;;;5.19;74.36
75219;BME280;63801;49.414;19.474;2024-02-26T01:09:06;92879.75;;;5.22;74.32
75219;BME280;63801;49.414;19.474;2024-02-26T01:11:06;92880.97;;;5.24;74.33
75219;BME280;63801;49.414;19.474;2024-02-26T01:13:07;92877.97;;;5.26;74.27
75219;BME280;63801;49.414;19.474;2024-02-26T01:15:08;92878.38;;;5.28;74.38
75219;BME280;63801;49.414;19.474;2024-02-26T01:17:08;92880.41;;;5.31;74.33
75219;BME280;63801;49.414;19.474;2024-02-26T01:19:09;92882.41;;;5.34;74.25
75219;BME280;63801;49.414;19.474;2024-02-26T01:21:09;92882.41;;;5.34;74.34
75219;BME280;63801;49.414;19.474;2024-02-26T01:23:09;92885.84;;;5.34;74.32
75219;BME280;63801;49.414;19.474;2024-02-26T01:25:10;92884.63;;;5.32;74.28
75219;BME280;63801;49.414;19.474;2024-02-26T01:27:10;92871.38;;;5.23;74.46
75219;BME280;63801;49.414;19.474;2024-02-26T01:29:11;92884.63;;;5.32;74.51
75219;BME280;63801;49.414;19.474;2024-02-26T01:31:11;92875.72;;;5.28;74.12
75219;BME280;63801;49.414;19.474;2024-02-26T01:33:11;92881.28;;;5.23;74.28
75219;BME280;63801;49.414;19.474;2024-02-26T01:35:12;92878.88;;;5.18;74.07
75219;BME280;63801;49.414;19.474;2024-02-26T01:37:12;92890.22;;;5.15;74.33
75219;BME280;63801;49.414;19.474;2024-02-26T01:39:13;92886.31;;;5.12;74.06
75219;BME280;63801;49.414;19.474;2024-02-26T01:41:14;92870.75;;;5.02;73.96
75219;BME280;63801;49.414;19.474;2024-02-26T01:43:14;92882.00;;;5.08;74.04
75219;BME280;63801;49.414;19.474;2024-02-26T01:45:16;92879.22;;;5.04;74.17
75219;BME280;63801;49.414;19.474;2024-02-26T01:47:22;92869.97;;;5.02;74.15
75219;BME280;63801;49.414;19.474;2024-02-26T01:49:24;92872.84;;;4.96;74.09
75219;BME280;63801;49.414;19.474;2024-02-26T01:51:24;92881.88;;;4.92;74.38
75219;BME280;63801;49.414;19.474;2024-02-26T01:53:25;92875.31;;;4.89;74.28
75219;BME280;63801;49.414;19.474;2024-02-26T01:55:25;92877.09;;;4.85;74.23
75219;BME280;63801;49.414;19.474;2024-02-26T01:57:27;92882.75;;;4.84;74.15
75219;BME280;63801;49.414;19.474;2024-02-26T01:59:29;92881.19;;;4.83;74.18
75219;BME280;63801;49.414;19.474;2024-02-26T02:01:31;92879.53;;;4.78;74.75
75219;BME280;63801;49.414;19.474;2024-02-26T02:03:31;92885.09;;;4.73;75.04
75219;BME280;63801;49.414;19.474;2024-02-26T02:05:32;92881.97;;;4.71;74.96
75219;BME280;63801;49.414;19.474;2024-02-26T02:07:34;92886.22;;;4.72;74.82
75219;BME280;63801;49.414;19.474;2024-02-26T02:09:36;92885.19;;;4.65;75.15
75219;BME280;63801;49.414;19.474;2024-02-26T02:11:36;92891.09;;;4.70;75.16
75219;BME280;63801;49.414;19.474;2024-02-26T02:13:37;92893.44;;;4.72;75.15
75219;BME280;63801;49.414;19.474;2024-02-26T02:15:38;92894.66;;;4.74;75.13
75219;BME280;63801;49.414;19.474;2024-02-26T02:17:38;92892.66;;;4.71;74.94
75219;BME280;63801;49.414;19.474;2024-02-26T02:19:38;92897.31;;;4.74;74.83
75219;BME280;63801;49.414;19.474;2024-02-26T02:21:39;92891.34;;;4.77;74.88
75219;BME280;63801;49.414;19.474;2024-02-26T02:23:39;92885.63;;;4.79;75.00
75219;BME280;63801;49.414;19.474;2024-02-26T02:25:40;92901.34;;;4.80;75.24
75219;BME280;63801;49.414;19.474;2024-02-26T02:27:42;92893.75;;;4.82;74.88
75219;BME280;63801;49.414;19.474;2024-02-26T02:29:43;92899.88;;;4.83;75.05
75219;BME280;63801;49.414;19.474;2024-02-26T02:31:43;92909.13;;;4.85;75.14
75219;BME280;63801;49.414;19.474;2024-02-26T02:33:44;92899.66;;;4.88;75.01
75219;BME280;63801;49.414;19.474;2024-02-26T02:35:44;92904.69;;;4.89;74.99
75219;BME280;63801;49.414;19.474;2024-02-26T02:37:45;92892.13;;;4.90;75.02
75219;BME280;63801;49.414;19.474;2024-02-26T02:39:46;92899.34;;;4.89;74.93
75219;BME280;63801;49.414;19.474;2024-02-26T02:41:46;92881.53;;;4.81;74.80
75219;BME280;63801;49.414;19.474;2024-02-26T02:43:47;92885.31;;;4.80;74.71
75219;BME280;63801;49.414;19.474;2024-02-26T02:45:47;92899.56;;;4.84;74.63
75219;BME280;63801;49.414;19.474;2024-02-26T02:47:47;92892.22;;;4.81;74.48
75219;BME280;63801;49.414;19.474;2024-02-26T02:49:48;92898.88;;;4.75;74.42
75219;BME280;63801;49.414;19.474;2024-02-26T02:51:48;92898.66;;;4.68;74.49
75219;BME280;63801;49.414;19.474;2024-02-26T02:53:48;92893.75;;;4.58;74.52
75219;BME280;63801;49.414;19.474;2024-02-26T02:55:49;92898.88;;;4.51;74.56
75219;BME280;63801;49.414;19.474;2024-02-26T02:57:49;92898.97;;;4.42;74.45
75219;BME280;63801;49.414;19.474;2024-02-26T02:59:49;92897.59;;;4.36;74.66
75219;BME280;63801;49.414;19.474;2024-02-26T03:01:50;92903.47;;;4.30;74.68
75219;BME280;63801;49.414;19.474;2024-02-26T03:03:50;92903.69;;;4.25;74.96
75219;BME280;63801;49.414;19.474;2024-02-26T03:05:51;92901.22;;;4.20;74.66
75219;BME280;63801;49.414;19.474;2024-02-26T03:07:51;92888.88;;;4.15;74.79
75219;BME280;63801;49.414;19.474;2024-02-26T03:09:52;92895.63;;;4.13;74.76
75219;BME280;63801;49.414;19.474;2024-02-26T03:11:53;92892.06;;;4.08;74.75
75219;BME280;63801;49.414;19.474;2024-02-26T03:13:53;92889.75;;;4.07;75.09
75219;BME280;63801;49.414;19.474;2024-02-26T03:15:53;92895.41;;;4.05;75.01
75219;BME280;63801;49.414;19.474;2024-02-26T03:17:54;92900.28;;;4.03;74.97
75219;BME280;63801;49.414;19.474;2024-02-26T03:19:54;92895.59;;;4.00;75.03
75219;BME280;63801;49.414;19.474;2024-02-26T03:21:55;92870.47;;;3.89;74.91
75219;BME280;63801;49.414;19.474;2024-02-26T03:23:55;92893.91;;;3.96;75.11
75219;BME280;63801;49.414;19.474;2024-02-26T03:25:57;92883.91;;;3.93;74.88
75219;BME280;63801;49.414;19.474;2024-02-26T03:27:58;92894.13;;;3.91;75.24
75219;BME280;63801;49.414;19.474;2024-02-26T03:29:58;92896.66;;;3.87;75.11
75219;BME280;63801;49.414;19.474;2024-02-26T03:31:59;92895.09;;;3.86;75.10
75219;BME280;63801;49.414;19.474;2024-02-26T03:33:59;92892.00;;;3.84;75.15
75219;BME280;63801;49.414;19.474;2024-02-26T03:35:59;92888.06;;;3.82;75.17
75219;BME280;63801;49.414;19.474;2024-02-26T03:38:01;92882.16;;;3.76;75.38
75219;BME280;63801;49.414;19.474;2024-02-26T03:40:01;92882.63;;;3.78;75.21
75219;BME280;63801;49.414;19.474;2024-02-26T03:42:02;92883.28;;;3.75;75.25
75219;BME280;63801;49.414;19.474;2024-02-26T03:44:02;92885.50;;;3.73;75.11
75219;BME280;63801;49.414;19.474;2024-02-26T03:46:03;92872.50;;;3.72;75.21
75219;BME280;63801;49.414;19.474;2024-02-26T03:48:03;92879.25;;;3.69;75.21
75219;BME280;63801;49.414;19.474;2024-02-26T03:50:04;92868.00;;;3.63;74.97
75219;BME280;63801;49.414;19.474;2024-02-26T03:52:05;92871.34;;;3.60;75.11
75219;BME280;63801;49.414;19.474;2024-02-26T03:54:05;92869.34;;;3.57;75.29
75219;BME280;63801;49.414;19.474;2024-02-26T03:56:06;92873.41;;;3.55;75.23
75219;BME280;63801;49.414;19.474;2024-02-26T03:58:06;92867.97;;;3.51;75.16
75219;BME280;63801;49.414;19.474;2024-02-26T04:00:07;92869.41;;;3.49;75.07
75219;BME280;63801;49.414;19.474;2024-02-26T04:02:07;92868.94;;;3.47;75.22
75219;BME280;63801;49.414;19.474;2024-02-26T04:04:09;92871.91;;;3.45;75.49
75219;BME280;63801;49.414;19.474;2024-02-26T04:06:11;92868.50;;;3.45;75.33
75219;BME280;63801;49.414;19.474;2024-02-26T04:08:11;92871.00;;;3.41;75.31
75219;BME280;63801;49.414;19.474;2024-02-26T04:10:12;92868.34;;;3.41;75.57
75219;BME280;63801;49.414;19.474;2024-02-26T04:12:12;92869.78;;;3.39;75.75
75219;BME280;63801;49.414;19.474;2024-02-26T04:14:13;92869.78;;;3.39;75.67
75219;BME280;63801;49.414;19.474;2024-02-26T04:16:13;92878.09;;;3.37;75.55
75219;BME280;63801;49.414;19.474;2024-02-26T04:18:14;92871.53;;;3.35;75.66
75219;BME280;63801;49.414;19.474;2024-02-26T04:20:15;92874.97;;;3.35;75.84
75219;BME280;63801;49.414;19.474;2024-02-26T04:22:16;92875.41;;;3.37;75.88
75219;BME280;63801;49.414;19.474;2024-02-26T04:24:17;92869.59;;;3.44;75.95
75219;BME280;63801;49.414;19.474;2024-02-26T04:29:13;92865.41;;;3.55;76.02
75219;BME280;63801;49.414;19.474;2024-02-26T04:31:14;92863.22;;;3.57;75.80
75219;BME280;63801;49.414;19.474;2024-02-26T04:33:15;92865.22;;;3.60;76.04
75219;BME280;63801;49.414;19.474;2024-02-26T04:35:17;92869.88;;;3.63;75.89
75219;BME280;63801;49.414;19.474;2024-02-26T04:37:17;92860.78;;;3.64;75.79
75219;BME280;63801;49.414;19.474;2024-02-26T04:39:17;92861.69;;;3.68;75.90
75219;BME280;63801;49.414;19.474;2024-02-26T04:41:18;92860.72;;;3.73;75.82
75219;BME280;63801;49.414;19.474;2024-02-26T04:43:18;92860.09;;;3.76;75.78
75219;BME280;63801;49.414;19.474;2024-02-26T04:45:19;92859.84;;;3.81;75.98
75219;BME280;63801;49.414;19.474;2024-02-26T04:47:19;92842.19;;;3.76;75.68
75219;BME280;63801;49.414;19.474;2024-02-26T04:49:22;92850.25;;;3.88;75.87
75219;BME280;63801;49.414;19.474;2024-02-26T04:51:22;92863.69;;;3.92;75.83
75219;BME280;63801;49.414;19.474;2024-02-26T04:53:22;92858.03;;;3.93;75.97
75219;BME280;63801;49.414;19.474;2024-02-26T04:55:23;92849.69;;;3.95;75.84
75219;BME280;63801;49.414;19.474;2024-02-26T04:57:23;92853.59;;;3.97;75.68
75219;BME280;63801;49.414;19.474;2024-02-26T04:59:23;92857.38;;;3.96;75.57
75219;BME280;63801;49.414;19.474;2024-02-26T05:01:24;92846.03;;;3.99;75.78
75219;BME280;63801;49.414;19.474;2024-02-26T05:03:24;92850.28;;;4.00;75.80
75219;BME280;63801;49.414;19.474;2024-02-26T05:05:26;92852.28;;;4.03;75.83
75219;BME280;63801;49.414;19.474;2024-02-26T05:07:26;92851.63;;;4.06;75.78
75219;BME280;63801;49.414;19.474;2024-02-26T05:09:27;92849.09;;;4.10;75.77
75219;BME280;63801;49.414;19.474;2024-02-26T05:11:27;92845.75;;;4.13;75.85
75219;BME280;63801;49.414;19.474;2024-02-26T05:13:27;92845.06;;;4.16;75.76
75219;BME280;63801;49.414;19.474;2024-02-26T05:15:28;92833.97;;;4.14;75.71
75219;BME280;63801;49.414;19.474;2024-02-26T05:17:28;92839.00;;;4.16;75.60
75219;BME280;63801;49.414;19.474;2024-02-26T05:19:28;92834.41;;;4.16;75.86
75219;BME280;63801;49.414;19.474;2024-02-26T05:21:29;92839.75;;;4.16;75.69
75219;BME280;63801;49.414;19.474;2024-02-26T05:23:29;92837.06;;;4.16;75.84
75219;BME280;63801;49.414;19.474;2024-02-26T05:25:30;92834.28;;;4.13;75.85
75219;BME280;63801;49.414;19.474;2024-02-26T05:27:31;92837.44;;;4.15;75.67
75219;BME280;63801;49.414;19.474;2024-02-26T05:29:31;92828.31;;;4.16;75.60
75219;BME280;63801;49.414;19.474;2024-02-26T05:31:32;92833.66;;;4.16;75.93
75219;BME280;63801;49.414;19.474;2024-02-26T05:33:32;92831.41;;;4.18;75.91
75219;BME280;63801;49.414;19.474;2024-02-26T05:35:32;92834.56;;;4.20;76.27
75219;BME280;63801;49.414;19.474;2024-02-26T05:37:33;92839.69;;;4.25;76.09
75219;BME280;63801;49.414;19.474;2024-02-26T05:39:33;92834.44;;;4.28;76.35
75219;BME280;63801;49.414;19.474;2024-02-26T05:41:33;92841.47;;;4.33;76.14
75219;BME280;63801;49.414;19.474;2024-02-26T05:43:34;92844.56;;;4.35;76.23
75219;BME280;63801;49.414;19.474;2024-02-26T05:45:34;92838.59;;;4.38;76.00
75219;BME280;63801;49.414;19.474;2024-02-26T05:47:35;92851.25;;;4.41;76.24
75219;BME280;63801;49.414;19.474;2024-02-26T05:49:35;92845.59;;;4.42;76.09
75219;BME280;63801;49.414;19.474;2024-02-26T05:51:35;92846.50;;;4.46;76.15
75219;BME280;63801;49.414;19.474;2024-02-26T05:53:36;92841.91;;;4.47;76.46
75219;BME280;63801;49.414;19.474;2024-02-26T05:55:36;92853.03;;;4.49;76.17
75219;BME280;63801;49.414;19.474;2024-02-26T05:57:37;92845.13;;;4.52;76.16
75219;BME280;63801;49.414;19.474;2024-02-26T05:59:38;92850.59;;;4.56;76.07
75219;BME280;63801;49.414;19.474;2024-02-26T06:01:38;92850.38;;;4.61;76.31
75219;BME280;63801;49.414;19.474;2024-02-26T06:03:38;92855.81;;;4.65;76.12
75219;BME280;63801;49.414;19.474;2024-02-26T06:05:39;92847.94;;;4.68;76.21
75219;BME280;63801;49.414;19.474;2024-02-26T06:07:39;92845.81;;;4.74;76.30
75219;BME280;63801;49.414;19.474;2024-02-26T06:09:40;92847.47;;;4.78;76.32
75219;BME280;63801;49.414;19.474;2024-02-26T06:11:40;92852.59;;;4.83;76.23
75219;BME280;63801;49.414;19.474;2024-02-26T06:13:41;92843.03;;;4.82;76.21
75219;BME280;63801;49.414;19.474;2024-02-26T06:15:41;92853.06;;;4.85;76.40
75219;BME280;63801;49.414;19.474;2024-02-26T06:17:41;92854.72;;;4.90;76.49
75219;BME280;63801;49.414;19.474;2024-02-26T06:19:42;92848.81;;;4.96;76.38
75219;BME280;63801;49.414;19.474;2024-02-26T06:21:42;92854.72;;;5.02;76.44
75219;BME280;63801;49.414;19.474;2024-02-26T06:23:42;92855.69;;;5.10;76.41
75219;BME280;63801;49.414;19.474;2024-02-26T06:25:43;92865.06;;;5.16;76.46
75219;BME280;63801;49.414;19.474;2024-02-26T06:27:43;92857.16;;;5.19;76.10
75219;BME280;63801;49.414;19.474;2024-02-26T06:29:43;92865.25;;;5.23;76.22
75219;BME280;63801;49.414;19.474;2024-02-26T06:31:44;92862.34;;;5.28;76.19
75219;BME280;63801;49.414;19.474;2024-02-26T06:33:45;92873.94;;;5.32;76.08
75219;BME280;63801;49.414;19.474;2024-02-26T06:35:45;92867.72;;;5.28;75.81
75219;BME280;63801;49.414;19.474;2024-02-26T06:37:45;92866.13;;;5.27;75.96
75219;BME280;63801;49.414;19.474;2024-02-26T06:39:46;92869.28;;;5.29;76.24
75219;BME280;63801;49.414;19.474;2024-02-26T06:41:46;92877.50;;;5.24;76.16
75219;BME280;63801;49.414;19.474;2024-02-26T06:43:47;92875.94;;;5.23;76.19
75219;BME280;63801;49.414;19.474;2024-02-26T06:45:47;92881.41;;;5.26;76.20
75219;BME280;63801;49.414;19.474;2024-02-26T06:47:47;92880.75;;;5.29;76.35
75219;BME280;63801;49.414;19.474;2024-02-26T06:49:47;92883.84;;;5.31;76.22
75219;BME280;63801;49.414;19.474;2024-02-26T06:51:48;92877.28;;;5.29;76.30
75219;BME280;63801;49.414;19.474;2024-02-26T06:53:49;92881.75;;;5.25;76.20
75219;BME280;63801;49.414;19.474;2024-02-26T06:55:49;92883.84;;;5.19;76.06
75219;BME280;63801;49.414;19.474;2024-02-26T06:57:50;92886.44;;;5.16;76.14
75219;BME280;63801;49.414;19.474;2024-02-26T06:59:50;92888.22;;;5.12;76.01
75219;BME280;63801;49.414;19.474;2024-02-26T07:01:51;92890.88;;;5.12;76.17
75219;BME280;63801;49.414;19.474;2024-02-26T07:03:51;92890.66;;;5.17;76.21
75219;BME280;63801;49.414;19.474;2024-02-26T07:05:51;92885.66;;;5.15;76.42
75219;BME280;63801;49.414;19.474;2024-02-26T07:07:52;92895.00;;;5.21;76.25
75219;BME280;63801;49.414;19.474;2024-02-26T07:09:52;92893.53;;;5.24;76.42
75219;BME280;63801;49.414;19.474;2024-02-26T07:11:52;92882.16;;;5.27;76.25
75219;BME280;63801;49.414;19.474;2024-02-26T07:13:53;92883.09;;;5.31;76.28
75219;BME280;63801;49.414;19.474;2024-02-26T07:15:53;92886.97;;;5.33;76.25
75219;BME280;63801;49.414;19.474;2024-02-26T07:17:53;92889.72;;;5.37;76.29
75219;BME280;63801;49.414;19.474;2024-02-26T07:19:54;92882.69;;;5.44;76.29
75219;BME280;63801;49.414;19.474;2024-02-26T07:21:54;92889.72;;;5.49;76.65
75219;BME280;63801;49.414;19.474;2024-02-26T07:23:55;92889.94;;;5.56;76.48
75219;BME280;63801;49.414;19.474;2024-02-26T07:25:56;92893.59;;;5.64;76.50
75219;BME280;63801;49.414;19.474;2024-02-26T07:27:56;92888.78;;;5.69;76.52
75219;BME280;63801;49.414;19.474;2024-02-26T07:29:56;92884.31;;;5.73;76.51
75219;BME280;63801;49.414;19.474;2024-02-26T07:31:57;92887.41;;;5.75;76.38
75219;BME280;63801;49.414;19.474;2024-02-26T07:33:58;92892.97;;;5.82;76.50
75219;BME280;63801;49.414;19.474;2024-02-26T07:35:58;92887.44;;;5.88;76.49
75219;BME280;63801;49.414;19.474;2024-02-26T07:37:58;92887.19;;;5.93;76.52
75219;BME280;63801;49.414;19.474;2024-02-26T07:39:59;92881.56;;;5.98;76.35
75219;BME280;63801;49.414;19.474;2024-02-26T07:41:59;92882.47;;;6.02;76.42
75219;BME280;63801;49.414;19.474;2024-02-26T07:44:00;92883.34;;;6.06;76.47
75219;BME280;63801;49.414;19.474;2024-02-26T07:46:00;92892.25;;;6.10;76.28
75219;BME280;63801;49.414;19.474;2024-02-26T07:48:00;92880.06;;;6.12;76.37
75219;BME280;63801;49.414;19.474;2024-02-26T07:50:01;92886.53;;;6.11;76.17
75219;BME280;63801;49.414;19.474;2024-02-26T07:52:01;92883.53;;;6.13;76.09
75219;BME280;63801;49.414;19.474;2024-02-26T07:54:02;92888.09;;;6.12;76.06
75219;BME280;63801;49.414;19.474;2024-02-26T07:56:02;92894.47;;;6.08;75.82
75219;BME280;63801;49.414;19.474;2024-02-26T07:58:03;92889.81;;;6.05;75.88
75219;BME280;63801;49.414;19.474;2024-02-26T08:00:04;92879.13;;;6.05;76.13
75219;BME280;63801;49.414;19.474;2024-02-26T08:02:07;92894.38;;;6.04;76.12
75219;BME280;63801;49.414;19.474;2024-02-26T08:04:07;92896.59;;;6.02;76.06
75219;BME280;63801;49.414;19.474;2024-02-26T08:06:08;92899.63;;;6.01;76.06
75219;BME280;63801;49.414;19.474;2024-02-26T08:08:09;92901.09;;;5.98;76.04
75219;BME280;63801;49.414;19.474;2024-02-26T08:10:09;92908.59;;;5.93;75.96
75219;BME280;63801;49.414;19.474;2024-02-26T08:12:11;92903.47;;;5.88;75.94
75219;BME280;63801;49.414;19.474;2024-02-26T08:14:11;92904.59;;;5.86;76.19
75219;BME280;63801;49.414;19.474;2024-02-26T08:16:12;92902.38;;;5.89;76.29
75219;BME280;63801;49.414;19.474;2024-02-26T08:18:12;92897.88;;;5.93;76.31
75219;BME280;63801;49.414;19.474;2024-02-26T08:20:12;92900.31;;;5.98;76.47
75219;BME280;63801;49.414;19.474;2024-02-26T08:22:13;92906.19;;;6.03;76.45
75219;BME280;63801;49.414;19.474;2024-02-26T08:24:16;92894.56;;;6.11;76.50
75219;BME280;63801;49.414;19.474;2024-02-26T08:26:17;92890.19;;;6.19;76.61
75219;BME280;63801;49.414;19.474;2024-02-26T08:28:17;92894.63;;;6.27;76.67
75219;BME280;63801;49.414;19.474;2024-02-26T08:30:18;92896.69;;;6.33;76.64
75219;BME280;63801;49.414;19.474;2024-02-26T08:32:18;92900.09;;;6.46;76.63
75219;BME280;63801;49.414;19.474;2024-02-26T08:34:19;92899.59;;;6.56;76.81
75219;BME280;63801;49.414;19.474;2024-02-26T08:36:20;92900.22;;;6.65;76.61
75219;BME280;63801;49.414;19.474;2024-02-26T08:38:20;92893.22;;;6.76;76.67
75219;BME280;63801;49.414;19.474;2024-02-26T08:40:20;92888.03;;;6.84;76.55
75219;BME280;63801;49.414;19.474;2024-02-26T08:42:21;92891.25;;;6.89;76.64
75219;BME280;63801;49.414;19.474;2024-02-26T08:44:21;92892.53;;;6.95;76.38
75219;BME280;63801;49.414;19.474;2024-02-26T08:46:21;92890.69;;;6.99;76.27
75219;BME280;63801;49.414;19.474;2024-02-26T08:48:22;92886.97;;;7.04;76.16
75219;BME280;63801;49.414;19.474;2024-02-26T08:50:23;92896.59;;;7.05;76.12
75219;BME280;63801;49.414;19.474;2024-02-26T08:52:23;92900.81;;;7.06;76.06
75219;BME280;63801;49.414;19.474;2024-02-26T08:54:23;92900.50;;;7.07;75.88
75219;BME280;63801;49.414;19.474;2024-02-26T08:56:24;92899.34;;;7.08;75.83
75219;BME280;63801;49.414;19.474;2024-02-26T08:58:24;92900.91;;;7.09;76.02
75219;BME280;63801;49.414;19.474;2024-02-26T09:00:24;92899.53;;;7.15;76.11
75219;BME280;63801;49.414;19.474;2024-02-26T09:02:25;92893.53;;;7.22;76.28
75219;BME280;63801;49.414;19.474;2024-02-26T09:04:25;92905.13;;;7.26;76.20
75219;BME280;63801;49.414;19.474;2024-02-26T09:06:28;92899.09;;;7.29;76.08
75219;BME280;63801;49.414;19.474;2024-02-26T09:08:28;92906.00;;;7.30;75.83
75219;BME280;63801;49.414;19.474;2024-02-26T09:10:28;92902.19;;;7.31;75.93
75219;BME280;63801;49.414;19.474;2024-02-26T09:12:29;92900.00;;;7.37;76.01
75219;BME280;63801;49.414;19.474;2024-02-26T09:14:29;92906.31;;;7.44;76.25
75219;BME280;63801;49.414;19.474;2024-02-26T09:16:30;92902.75;;;7.56;76.15
75219;BME280;63801;49.414;19.474;2024-02-26T09:18:30;92902.97;;;7.66;76.15
75219;BME280;63801;49.414;19.474;2024-02-26T09:20:30;92902.78;;;7.75;75.84
75219;BME280;63801;49.414;19.474;2024-02-26T09:22:31;92901.03;;;7.83;75.79
75219;BME280;63801;49.414;19.474;2024-02-26T09:24:32;92898.75;;;7.85;75.62
75219;BME280;63801;49.414;19.474;2024-02-26T09:26:33;92896.44;;;7.83;75.38
75219;BME280;63801;49.414;19.474;2024-02-26T09:28:34;92915.13;;;7.80;75.41
75219;BME280;63801;49.414;19.474;2024-02-26T09:30:37;92902.44;;;7.77;75.30
75219;BME280;63801;49.414;19.474;2024-02-26T09:32:39;92903.22;;;7.77;75.36
75219;BME280;63801;49.414;19.474;2024-02-26T09:34:41;92900.19;;;7.79;75.46
75219;BME280;63801;49.414;19.474;2024-02-26T09:36:41;92891.78;;;7.80;75.43
75219;BME280;63801;49.414;19.474;2024-02-26T09:38:41;92901.72;;;7.80;75.30
75219;BME280;63801;49.414;19.474;2024-02-26T09:40:42;92902.88;;;7.79;75.32
75219;BME280;63801;49.414;19.474;2024-02-26T09:42:45;92905.13;;;7.77;75.16
75219;BME280;63801;49.414;19.474;2024-02-26T09:44:47;92901.31;;;7.78;75.41
75219;BME280;63801;49.414;19.474;2024-02-26T09:46:52;92907.09;;;7.80;75.40
75219;BME280;63801;49.414;19.474;2024-02-26T09:48:52;92905.97;;;7.81;75.52
75219;BME280;63801;49.414;19.474;2024-02-26T09:50:53;92908.31;;;7.82;75.40
75219;BME280;63801;49.414;19.474;2024-02-26T09:52:53;92902.56;;;7.84;75.49
75219;BME280;63801;49.414;19.474;2024-02-26T09:54:54;92898.44;;;7.86;75.59
75219;BME280;63801;49.414;19.474;2024-02-26T09:56:59;92890.88;;;7.92;75.60
75219;BME280;63801;49.414;19.474;2024-02-26T09:59:00;92886.38;;;7.96;75.77
75219;BME280;63801;49.414;19.474;2024-02-26T10:01:02;92902.94;;;8.01;75.57
75219;BME280;63801;49.414;19.474;2024-02-26T10:03:05;92895.66;;;8.02;75.56
75219;BME280;63801;49.414;19.474;2024-02-26T10:05:07;92900.63;;;8.00;75.62
75219;BME280;63801;49.414;19.474;2024-02-26T10:07:13;92897.56;;;8.01;75.51
75219;BME280;63801;49.414;19.474;2024-02-26T10:09:14;92903.06;;;7.89;75.49
75219;BME280;63801;49.414;19.474;2024-02-26T10:11:16;92897.97;;;7.84;75.63
75219;BME280;63801;49.414;19.474;2024-02-26T10:13:18;92895.50;;;7.76;75.58
75219;BME280;63801;49.414;19.474;2024-02-26T10:15:20;92903.94;;;7.74;75.62
75219;BME280;63801;49.414;19.474;2024-02-26T10:17:21;92911.47;;;7.68;75.63
75219;BME280;63801;49.414;19.474;2024-02-26T10:19:28;92909.91;;;7.67;75.95
75219;BME280;63801;49.414;19.474;2024-02-26T10:21:29;92906.09;;;7.68;75.93
75219;BME280;63801;49.414;19.474;2024-02-26T10:23:30;92910.75;;;7.72;76.11
75219;BME280;63801;49.414;19.474;2024-02-26T10:25:31;92903.13;;;7.74;76.11
75219;BME280;63801;49.414;19.474;2024-02-26T10:27:31;92910.91;;;7.79;76.24
75219;BME280;63801;49.414;19.474;2024-02-26T10:29:32;92913.31;;;7.84;76.24
75219;BME280;63801;49.414;19.474;2024-02-26T10:31:32;92911.91;;;7.90;76.23
75219;BME280;63801;49.414;19.474;2024-02-26T10:33:34;92894.25;;;7.89;76.02
75219;BME280;63801;49.414;19.474;2024-02-26T10:35:36;92905.72;;;8.05;76.42
75219;BME280;63801;49.414;19.474;2024-02-26T10:37:41;92908.53;;;8.12;76.56
75219;BME280;63801;49.414;19.474;2024-02-26T10:39:46;92910.22;;;8.20;76.31
75219;BME280;63801;49.414;19.474;2024-02-26T10:41:47;92904.13;;;8.23;76.32